sensor_id;sensor_type;location;lat;lon;timestamp;pressure;altitude;pressure_sealevel;temperature;humidity
60479;BME280;46321;48.398;11.754;2023-09-30T00:02:16;97311.47;;;17.72;nan
60479;BME280;46321;48.398;11.754;2023-09-30T00:04:41;97310.66;;;17.65;nan
60479;BME280;46321;48.398;11.754;2023-09-30T00:07:06;97308.34;;;17.62;nan
60479;BME280;46321;48.398;11.754;2023-09-30T00:09:31;97307.94;;;17.58;nan
60479;BME280;46321;48.398;11.754;2023-09-30T00:11:57;97315.09;;;17.44;nan
60479;BME280;46321;48.398;11.754;2023-09-30T00:14:23;97322.00;;;17.32;nan
60479;BME280;46321;48.398;11.754;2023-09-30T00:16:48;97313.81;;;17.33;nan
60479;BME280;46321;48.398;11.754;2023-09-30T00:19:13;97308.03;;;17.36;nan
60479;BME280;46321;48.398;11.754;2023-09-30T00:21:39;97320.75;;;17.27;nan
60479;BME280;46321;48.398;11.754;2023-09-30T00:24:04;97320.75;;;17.27;nan
60479;BME280;46321;48.398;11.754;2023-09-30T00:26:30;97318.06;;;17.21;nan
60479;BME280;46321;48.398;11.754;2023-09-30T00:28:55;97312.69;;;17.21;nan
60479;BME280;46321;48.398;11.754;2023-09-30T00:31:20;97308.19;;;17.21;nan
60479;BME280;46321;48.398;11.754;2023-09-30T00:33:46;97309.00;;;17.22;nan
60479;BME280;46321;48.398;11.754;2023-09-30T00:36:11;97321.91;;;17.11;nan
60479;BME280;46321;48.398;11.754;2023-09-30T00:38:37;97319.59;;;17.08;nan
60479;BME280;46321;48.398;11.754;2023-09-30T00:41:03;97310.09;;;16.99;nan
60479;BME280;46321;48.398;11.754;2023-09-30T00:43:28;97312.53;;;16.93;nan
60479;BME280;46321;48.398;11.754;2023-09-30T00:48:45;97321.09;;;16.82;nan
60479;BME280;46321;48.398;11.754;2023-09-30T00:51:11;97323.91;;;16.74;nan
60479;BME280;46321;48.398;11.754;2023-09-30T00:53:36;97315.88;;;16.74;nan
60479;BME280;46321;48.398;11.754;2023-09-30T00:56:02;97316.47;;;16.69;nan
60479;BME280;46321;48.398;11.754;2023-09-30T00:58:27;97318.66;;;16.58;nan
60479;BME280;46321;48.398;11.754;2023-09-30T01:00:56;97327.50;;;16.59;nan
60479;BME280;46321;48.398;11.754;2023-09-30T01:03:22;97327.34;;;16.67;nan
60479;BME280;46321;48.398;11.754;2023-09-30T01:05:48;97333.09;;;16.42;nan
60479;BME280;46321;48.398;11.754;2023-09-30T01:08:15;97330.84;;;16.39;nan
60479;BME280;46321;48.398;11.754;2023-09-30T01:10:41;97339.78;;;16.53;nan
60479;BME280;46321;48.398;11.754;2023-09-30T01:13:06;97334.25;;;16.55;nan
60479;BME280;46321;48.398;11.754;2023-09-30T01:15:31;97339.19;;;16.58;nan
60479;BME280;46321;48.398;11.754;2023-09-30T01:17:57;97335.09;;;16.55;nan
60479;BME280;46321;48.398;11.754;2023-09-30T01:20:23;97341.06;;;16.57;nan
60479;BME280;46321;48.398;11.754;2023-09-30T01:22:48;97341.50;;;16.61;nan
60479;BME280;46321;48.398;11.754;2023-09-30T01:25:14;97350.16;;;16.63;nan
60479;BME280;46321;48.398;11.754;2023-09-30T01:27:39;97339.47;;;16.63;nan
60479;BME280;46321;48.398;11.754;2023-09-30T01:30:05;97340.22;;;16.57;nan
60479;BME280;46321;48.398;11.754;2023-09-30T01:32:30;97341.66;;;16.53;nan
60479;BME280;46321;48.398;11.754;2023-09-30T01:34:56;97345.38;;;16.58;nan
60479;BME280;46321;48.398;11.754;2023-09-30T01:37:21;97342.06;;;16.56;nan
60479;BME280;46321;48.398;11.754;2023-09-30T01:39:47;97348.47;;;16.55;nan
60479;BME280;46321;48.398;11.754;2023-09-30T01:42:15;97328.84;;;16.48;nan
60479;BME280;46321;48.398;11.754;2023-09-30T01:44:40;97345.53;;;16.50;nan
60479;BME280;46321;48.398;11.754;2023-09-30T01:47:05;97340.81;;;16.52;nan
60479;BME280;46321;48.398;11.754;2023-09-30T01:49:31;97344.38;;;16.59;nan
60479;BME280;46321;48.398;11.754;2023-09-30T01:51:56;97341.13;;;16.64;nan
60479;BME280;46321;48.398;11.754;2023-09-30T01:54:21;97346.91;;;16.68;nan
60479;BME280;46321;48.398;11.754;2023-09-30T01:56:46;97338.94;;;16.75;nan
60479;BME280;46321;48.398;11.754;2023-09-30T01:59:12;97341.22;;;16.78;nan
60479;BME280;46321;48.398;11.754;2023-09-30T02:01:37;97335.56;;;16.66;nan
60479;BME280;46321;48.398;11.754;2023-09-30T02:04:02;97334.53;;;16.67;nan
60479;BME280;46321;48.398;11.754;2023-09-30T02:06:28;97335.25;;;16.54;nan
60479;BME280;46321;48.398;11.754;2023-09-30T02:08:53;97343.47;;;16.52;nan
60479;BME280;46321;48.398;11.754;2023-09-30T02:11:18;97343.47;;;16.52;nan
60479;BME280;46321;48.398;11.754;2023-09-30T02:13:43;97347.63;;;16.55;nan
60479;BME280;46321;48.398;11.754;2023-09-30T02:16:13;97342.22;;;16.48;nan
60479;BME280;46321;48.398;11.754;2023-09-30T02:18:39;97344.63;;;16.43;nan
60479;BME280;46321;48.398;11.754;2023-09-30T02:21:06;97340.31;;;16.42;nan
60479;BME280;46321;48.398;11.754;2023-09-30T02:23:33;97341.75;;;16.44;nan
60479;BME280;46321;48.398;11.754;2023-09-30T02:25:59;97348.41;;;16.48;nan
60479;BME280;46321;48.398;11.754;2023-09-30T02:28:24;97340.19;;;16.50;nan
60479;BME280;46321;48.398;11.754;2023-09-30T02:30:50;97344.31;;;16.53;nan
60479;BME280;46321;48.398;11.754;2023-09-30T02:33:15;97346.53;;;16.49;nan
60479;BME280;46321;48.398;11.754;2023-09-30T02:35:45;97349.66;;;16.53;nan
60479;BME280;46321;48.398;11.754;2023-09-30T02:38:11;97349.66;;;16.53;nan
60479;BME280;46321;48.398;11.754;2023-09-30T02:40:36;97343.09;;;16.55;nan
60479;BME280;46321;48.398;11.754;2023-09-30T02:43:02;97353.34;;;16.52;nan
60479;BME280;46321;48.398;11.754;2023-09-30T02:45:27;97347.50;;;16.41;nan
60479;BME280;46321;48.398;11.754;2023-09-30T02:47:53;97356.84;;;16.52;nan
60479;BME280;46321;48.398;11.754;2023-09-30T02:50:18;97345.91;;;16.25;nan
60479;BME280;46321;48.398;11.754;2023-09-30T02:52:43;97347.44;;;16.34;nan
60479;BME280;46321;48.398;11.754;2023-09-30T02:55:09;97345.03;;;16.40;nan
60479;BME280;46321;48.398;11.754;2023-09-30T02:57:35;97337.50;;;16.50;nan
60479;BME280;46321;48.398;11.754;2023-09-30T03:00:08;97336.47;;;16.51;nan
60479;BME280;46321;48.398;11.754;2023-09-30T03:02:52;97338.13;;;16.52;nan
60479;BME280;46321;48.398;11.754;2023-09-30T03:05:18;97344.69;;;16.50;nan
60479;BME280;46321;48.398;11.754;2023-09-30T03:07:45;97345.72;;;16.48;nan
60479;BME280;46321;48.398;11.754;2023-09-30T03:10:10;97341.91;;;16.36;nan
60479;BME280;46321;48.398;11.754;2023-09-30T03:12:37;97335.16;;;16.40;nan
60479;BME280;46321;48.398;11.754;2023-09-30T03:15:04;97334.09;;;16.34;nan
60479;BME280;46321;48.398;11.754;2023-09-30T03:17:33;97343.50;;;16.30;nan
60479;BME280;46321;48.398;11.754;2023-09-30T03:19:58;97349.00;;;16.29;nan
60479;BME280;46321;48.398;11.754;2023-09-30T03:22:25;97351.88;;;16.27;nan
60479;BME280;46321;48.398;11.754;2023-09-30T03:24:50;97351.25;;;16.25;nan
60479;BME280;46321;48.398;11.754;2023-09-30T03:27:16;97357.50;;;16.32;nan
60479;BME280;46321;48.398;11.754;2023-09-30T03:29:41;97352.72;;;16.28;nan
60479;BME280;46321;48.398;11.754;2023-09-30T03:32:06;97351.06;;;16.27;nan
60479;BME280;46321;48.398;11.754;2023-09-30T03:34:34;97344.44;;;16.22;nan
60479;BME280;46321;48.398;11.754;2023-09-30T03:37:02;97342.34;;;16.18;nan
60479;BME280;46321;48.398;11.754;2023-09-30T03:39:27;97353.28;;;16.23;nan
60479;BME280;46321;48.398;11.754;2023-09-30T03:41:55;97348.16;;;16.21;nan
60479;BME280;46321;48.398;11.754;2023-09-30T03:44:22;97352.84;;;16.19;nan
60479;BME280;46321;48.398;11.754;2023-09-30T03:46:51;97351.44;;;16.23;nan
60479;BME280;46321;48.398;11.754;2023-09-30T03:49:16;97352.09;;;16.25;nan
60479;BME280;46321;48.398;11.754;2023-09-30T03:51:42;97359.69;;;16.29;nan
60479;BME280;46321;48.398;11.754;2023-09-30T03:54:07;97356.28;;;16.35;nan
60479;BME280;46321;48.398;11.754;2023-09-30T03:56:34;97341.00;;;16.29;nan
60479;BME280;46321;48.398;11.754;2023-09-30T03:58:59;97339.09;;;16.22;nan
60479;BME280;46321;48.398;11.754;2023-09-30T04:01:24;97351.63;;;16.22;nan
60479;BME280;46321;48.398;11.754;2023-09-30T04:03:51;97355.31;;;16.21;nan
60479;BME280;46321;48.398;11.754;2023-09-30T04:06:19;97359.63;;;16.22;nan
60479;BME280;46321;48.398;11.754;2023-09-30T04:08:45;97369.13;;;16.24;nan
60479;BME280;46321;48.398;11.754;2023-09-30T04:11:10;97365.72;;;16.31;nan
60479;BME280;46321;48.398;11.754;2023-09-30T04:13:39;97362.91;;;16.39;nan
60479;BME280;46321;48.398;11.754;2023-09-30T04:16:05;97358.97;;;16.35;nan
60479;BME280;46321;48.398;11.754;2023-09-30T04:18:30;97380.63;;;16.25;nan
60479;BME280;46321;48.398;11.754;2023-09-30T04:20:55;97371.84;;;16.31;nan
60479;BME280;46321;48.398;11.754;2023-09-30T04:23:21;97368.38;;;16.31;nan
60479;BME280;46321;48.398;11.754;2023-09-30T04:25:47;97368.63;;;16.36;nan
60479;BME280;46321;48.398;11.754;2023-09-30T04:28:13;97374.09;;;16.28;nan
60479;BME280;46321;48.398;11.754;2023-09-30T04:30:39;97364.53;;;16.18;nan
60479;BME280;46321;48.398;11.754;2023-09-30T04:33:05;97366.69;;;16.08;nan
60479;BME280;46321;48.398;11.754;2023-09-30T04:35:30;97368.09;;;16.04;nan
60479;BME280;46321;48.398;11.754;2023-09-30T04:37:56;97366.22;;;16.04;nan
60479;BME280;46321;48.398;11.754;2023-09-30T04:40:29;97380.50;;;15.96;nan
60479;BME280;46321;48.398;11.754;2023-09-30T04:42:54;97381.25;;;15.90;nan
60479;BME280;46321;48.398;11.754;2023-09-30T04:45:26;97387.53;;;15.82;nan
60479;BME280;46321;48.398;11.754;2023-09-30T04:47:52;97399.31;;;15.88;nan
60479;BME280;46321;48.398;11.754;2023-09-30T04:50:18;97393.59;;;15.91;nan
60479;BME280;46321;48.398;11.754;2023-09-30T04:52:46;97385.81;;;15.74;nan
60479;BME280;46321;48.398;11.754;2023-09-30T04:55:12;97385.34;;;15.71;nan
60479;BME280;46321;48.398;11.754;2023-09-30T04:57:38;97381.31;;;15.75;nan
60479;BME280;46321;48.398;11.754;2023-09-30T05:00:04;97390.13;;;15.75;nan
60479;BME280;46321;48.398;11.754;2023-09-30T05:02:36;97397.13;;;15.76;nan
60479;BME280;46321;48.398;11.754;2023-09-30T05:05:01;97396.47;;;15.74;nan
60479;BME280;46321;48.398;11.754;2023-09-30T05:07:26;97389.88;;;15.70;nan
60479;BME280;46321;48.398;11.754;2023-09-30T05:09:54;97399.63;;;15.63;nan
60479;BME280;46321;48.398;11.754;2023-09-30T05:12:19;97405.41;;;15.66;nan
60479;BME280;46321;48.398;11.754;2023-09-30T05:14:45;97407.06;;;15.67;nan
60479;BME280;46321;48.398;11.754;2023-09-30T05:17:11;97418.59;;;15.68;nan
60479;BME280;46321;48.398;11.754;2023-09-30T05:19:37;97412.75;;;15.64;nan
60479;BME280;46321;48.398;11.754;2023-09-30T05:22:02;97413.78;;;15.63;nan
60479;BME280;46321;48.398;11.754;2023-09-30T05:24:28;97410.47;;;15.61;nan
60479;BME280;46321;48.398;11.754;2023-09-30T05:26:53;97413.59;;;15.65;nan
60479;BME280;46321;48.398;11.754;2023-09-30T05:29:19;97405.41;;;15.66;nan
60479;BME280;46321;48.398;11.754;2023-09-30T05:31:45;97406.50;;;15.72;nan
60479;BME280;46321;48.398;11.754;2023-09-30T05:34:10;97411.66;;;15.74;nan
60479;BME280;46321;48.398;11.754;2023-09-30T05:36:36;97403.47;;;15.75;nan
60479;BME280;46321;48.398;11.754;2023-09-30T05:39:01;97406.13;;;15.75;nan
60479;BME280;46321;48.398;11.754;2023-09-30T05:41:28;97407.31;;;15.73;nan
60479;BME280;46321;48.398;11.754;2023-09-30T05:43:54;97411.84;;;15.72;nan
60479;BME280;46321;48.398;11.754;2023-09-30T05:46:20;97417.09;;;15.65;nan
60479;BME280;46321;48.398;11.754;2023-09-30T05:48:46;97416.81;;;15.75;nan
60479;BME280;46321;48.398;11.754;2023-09-30T05:51:11;97410.06;;;15.79;nan
60479;BME280;46321;48.398;11.754;2023-09-30T05:53:40;97415.50;;;15.86;nan
60479;BME280;46321;48.398;11.754;2023-09-30T05:56:06;97415.22;;;15.96;nan
60479;BME280;46321;48.398;11.754;2023-09-30T05:58:32;97409.59;;;15.91;nan
60479;BME280;46321;48.398;11.754;2023-09-30T06:00:57;97404.72;;;15.95;nan
60479;BME280;46321;48.398;11.754;2023-09-30T06:03:22;97410.50;;;15.98;nan
60479;BME280;46321;48.398;11.754;2023-09-30T06:05:48;97405.91;;;16.07;nan
60479;BME280;46321;48.398;11.754;2023-09-30T06:08:14;97410.34;;;16.15;nan
60479;BME280;46321;48.398;11.754;2023-09-30T06:10:40;97414.16;;;16.28;nan
60479;BME280;46321;48.398;11.754;2023-09-30T06:13:08;97436.03;;;16.38;nan
60479;BME280;46321;48.398;11.754;2023-09-30T06:15:34;97440.78;;;16.21;nan
60479;BME280;46321;48.398;11.754;2023-09-30T06:18:01;97445.03;;;16.00;nan
60479;BME280;46321;48.398;11.754;2023-09-30T06:20:29;97450.78;;;16.34;nan
60479;BME280;46321;48.398;11.754;2023-09-30T06:22:56;97447.69;;;16.52;nan
60479;BME280;46321;48.398;11.754;2023-09-30T06:25:21;97447.75;;;16.59;nan
60479;BME280;46321;48.398;11.754;2023-09-30T06:27:49;97459.16;;;16.46;nan
60479;BME280;46321;48.398;11.754;2023-09-30T06:30:15;97462.19;;;16.65;nan
60479;BME280;46321;48.398;11.754;2023-09-30T06:32:42;97471.31;;;16.70;nan
60479;BME280;46321;48.398;11.754;2023-09-30T06:35:08;97480.41;;;16.76;nan
60479;BME280;46321;48.398;11.754;2023-09-30T06:37:38;97479.84;;;16.81;nan
60479;BME280;46321;48.398;11.754;2023-09-30T06:40:06;97478.44;;;16.85;nan
60479;BME280;46321;48.398;11.754;2023-09-30T06:42:33;97469.25;;;16.94;nan
60479;BME280;46321;48.398;11.754;2023-09-30T06:44:58;97474.94;;;17.07;nan
60479;BME280;46321;48.398;11.754;2023-09-30T06:47:24;97465.63;;;17.24;nan
60479;BME280;46321;48.398;11.754;2023-09-30T06:49:49;97473.47;;;17.26;nan
60479;BME280;46321;48.398;11.754;2023-09-30T06:52:14;97470.69;;;17.41;nan
60479;BME280;46321;48.398;11.754;2023-09-30T06:54:40;97469.31;;;17.52;nan
60479;BME280;46321;48.398;11.754;2023-09-30T06:57:05;97468.53;;;17.58;nan
60479;BME280;46321;48.398;11.754;2023-09-30T06:59:32;97466.25;;;17.55;nan
60479;BME280;46321;48.398;11.754;2023-09-30T07:01:57;97482.69;;;17.52;nan
60479;BME280;46321;48.398;11.754;2023-09-30T07:04:22;97486.59;;;17.49;nan
60479;BME280;46321;48.398;11.754;2023-09-30T07:06:48;97500.22;;;17.55;nan
60479;BME280;46321;48.398;11.754;2023-09-30T07:09:13;97491.97;;;17.49;nan
60479;BME280;46321;48.398;11.754;2023-09-30T07:11:38;97486.19;;;17.53;nan
60479;BME280;46321;48.398;11.754;2023-09-30T07:14:04;97487.66;;;17.55;nan
60479;BME280;46321;48.398;11.754;2023-09-30T07:16:29;97477.75;;;17.84;nan
60479;BME280;46321;48.398;11.754;2023-09-30T07:18:55;97480.06;;;18.01;nan
60479;BME280;46321;48.398;11.754;2023-09-30T07:21:20;97483.63;;;18.15;nan
60479;BME280;46321;48.398;11.754;2023-09-30T07:23:46;97487.31;;;18.50;nan
60479;BME280;46321;48.398;11.754;2023-09-30T07:26:13;97504.47;;;18.83;nan
60479;BME280;46321;48.398;11.754;2023-09-30T07:28:38;97513.53;;;18.82;nan
60479;BME280;46321;48.398;11.754;2023-09-30T07:31:03;97510.69;;;18.83;nan
60479;BME280;46321;48.398;11.754;2023-09-30T07:33:28;97504.88;;;18.86;nan
60479;BME280;46321;48.398;11.754;2023-09-30T07:35:55;97515.22;;;18.96;nan
60479;BME280;46321;48.398;11.754;2023-09-30T07:38:21;97520.22;;;19.20;nan
60479;BME280;46321;48.398;11.754;2023-09-30T07:40:46;97528.09;;;19.35;nan
60479;BME280;46321;48.398;11.754;2023-09-30T07:43:11;97534.91;;;19.31;nan
60479;BME280;46321;48.398;11.754;2023-09-30T07:45:37;97530.34;;;19.25;nan
60479;BME280;46321;48.398;11.754;2023-09-30T07:48:03;97520.66;;;19.37;nan
60479;BME280;46321;48.398;11.754;2023-09-30T07:50:30;97529.72;;;19.50;nan
60479;BME280;46321;48.398;11.754;2023-09-30T07:52:55;97525.59;;;19.54;nan
60479;BME280;46321;48.398;11.754;2023-09-30T07:55:20;97520.84;;;19.36;nan
60479;BME280;46321;48.398;11.754;2023-09-30T07:57:45;97529.72;;;19.36;nan
60479;BME280;46321;48.398;11.754;2023-09-30T08:00:11;97532.22;;;19.31;nan
60479;BME280;46321;48.398;11.754;2023-09-30T08:02:41;97539.63;;;19.70;nan
60479;BME280;46321;48.398;11.754;2023-09-30T08:05:07;97541.50;;;19.69;nan
60479;BME280;46321;48.398;11.754;2023-09-30T08:07:33;97533.88;;;19.52;nan
60479;BME280;46321;48.398;11.754;2023-09-30T08:09:58;97539.44;;;19.51;nan
60479;BME280;46321;48.398;11.754;2023-09-30T08:12:23;97535.09;;;19.22;nan
60479;BME280;46321;48.398;11.754;2023-09-30T08:14:49;97526.44;;;19.41;nan
60479;BME280;46321;48.398;11.754;2023-09-30T08:17:16;97532.22;;;19.31;nan
60479;BME280;46321;48.398;11.754;2023-09-30T08:19:42;97527.03;;;19.29;nan
60479;BME280;46321;48.398;11.754;2023-09-30T08:22:07;97531.19;;;19.32;nan
60479;BME280;46321;48.398;11.754;2023-09-30T08:24:34;97542.13;;;19.37;nan
60479;BME280;46321;48.398;11.754;2023-09-30T08:26:59;97553.06;;;19.36;nan
60479;BME280;46321;48.398;11.754;2023-09-30T08:29:25;97548.72;;;19.21;nan
60479;BME280;46321;48.398;11.754;2023-09-30T08:31:51;97548.94;;;19.26;nan
60479;BME280;46321;48.398;11.754;2023-09-30T08:34:16;97558.00;;;19.25;nan
60479;BME280;46321;48.398;11.754;2023-09-30T08:36:43;97556.56;;;19.16;nan
60479;BME280;46321;48.398;11.754;2023-09-30T08:39:08;97543.97;;;19.23;nan
60479;BME280;46321;48.398;11.754;2023-09-30T08:41:35;97544.81;;;19.58;nan
60479;BME280;46321;48.398;11.754;2023-09-30T08:44:02;97545.09;;;20.29;nan
60479;BME280;46321;48.398;11.754;2023-09-30T08:46:30;97548.66;;;20.69;nan
60479;BME280;46321;48.398;11.754;2023-09-30T08:48:58;97549.03;;;21.12;nan
60479;BME280;46321;48.398;11.754;2023-09-30T08:51:24;97564.75;;;21.15;nan
60479;BME280;46321;48.398;11.754;2023-09-30T08:53:50;97575.34;;;21.10;nan
60479;BME280;46321;48.398;11.754;2023-09-30T08:56:19;97557.34;;;21.10;nan
60479;BME280;46321;48.398;11.754;2023-09-30T08:58:46;97561.25;;;21.40;nan
60479;BME280;46321;48.398;11.754;2023-09-30T09:01:12;97560.66;;;21.89;nan
60479;BME280;46321;48.398;11.754;2023-09-30T09:03:38;97551.97;;;22.25;nan
60479;BME280;46321;48.398;11.754;2023-09-30T09:06:04;97553.16;;;22.48;nan
60479;BME280;46321;48.398;11.754;2023-09-30T09:08:29;97558.81;;;22.96;nan
60479;BME280;46321;48.398;11.754;2023-09-30T09:10:59;97560.53;;;23.33;nan
60479;BME280;46321;48.398;11.754;2023-09-30T09:13:26;97563.66;;;23.18;nan
60479;BME280;46321;48.398;11.754;2023-09-30T09:16:08;97562.44;;;23.93;nan
60479;BME280;46321;48.398;11.754;2023-09-30T09:18:34;97553.16;;;23.52;nan
60479;BME280;46321;48.398;11.754;2023-09-30T09:21:11;97550.72;;;23.08;nan
60479;BME280;46321;48.398;11.754;2023-09-30T09:23:43;97555.09;;;23.21;nan
60479;BME280;46321;48.398;11.754;2023-09-30T09:26:10;97544.47;;;23.98;nan
60479;BME280;46321;48.398;11.754;2023-09-30T09:28:37;97548.34;;;24.02;nan
60479;BME280;46321;48.398;11.754;2023-09-30T09:31:19;97551.88;;;24.03;nan
60479;BME280;46321;48.398;11.754;2023-09-30T09:33:46;97548.63;;;23.65;nan
60479;BME280;46321;48.398;11.754;2023-09-30T09:36:11;97542.47;;;23.82;nan
60479;BME280;46321;48.398;11.754;2023-09-30T09:38:47;97546.78;;;23.34;nan
60479;BME280;46321;48.398;11.754;2023-09-30T09:41:14;97535.56;;;23.86;nan
60479;BME280;46321;48.398;11.754;2023-09-30T09:43:41;97533.88;;;24.09;nan
60479;BME280;46321;48.398;11.754;2023-09-30T09:46:10;97531.25;;;24.38;nan
60479;BME280;46321;48.398;11.754;2023-09-30T09:48:36;97534.56;;;24.69;nan
60479;BME280;46321;48.398;11.754;2023-09-30T09:51:03;97539.22;;;24.57;nan
60479;BME280;46321;48.398;11.754;2023-09-30T09:53:30;97536.94;;;24.66;nan
60479;BME280;46321;48.398;11.754;2023-09-30T09:55:59;97550.66;;;25.06;nan
60479;BME280;46321;48.398;11.754;2023-09-30T09:58:25;97545.66;;;24.56;nan
60479;BME280;46321;48.398;11.754;2023-09-30T10:00:52;97534.00;;;24.14;nan
60479;BME280;46321;48.398;11.754;2023-09-30T10:03:18;97537.75;;;24.25;nan
60479;BME280;46321;48.398;11.754;2023-09-30T10:05:43;97519.28;;;27.19;nan
60479;BME280;46321;48.398;11.754;2023-09-30T10:08:13;97512.03;;;30.42;nan
60479;BME280;46321;48.398;11.754;2023-09-30T10:10:39;97506.66;;;32.01;nan
60479;BME280;46321;48.398;11.754;2023-09-30T10:13:05;97507.16;;;32.72;nan
60479;BME280;46321;48.398;11.754;2023-09-30T10:18:09;97506.25;;;36.44;nan
60479;BME280;46321;48.398;11.754;2023-09-30T10:20:39;97511.31;;;35.69;nan
60479;BME280;46321;48.398;11.754;2023-09-30T10:25:49;97491.78;;;39.81;nan
60479;BME280;46321;48.398;11.754;2023-09-30T10:28:47;97486.75;;;41.36;nan
60479;BME280;46321;48.398;11.754;2023-09-30T10:31:19;97478.69;;;42.11;nan
60479;BME280;46321;48.398;11.754;2023-09-30T10:36:34;97494.09;;;40.70;nan
60479;BME280;46321;48.398;11.754;2023-09-30T10:39:01;97498.66;;;35.91;nan
60479;BME280;46321;48.398;11.754;2023-09-30T10:49:46;97488.72;;;42.92;nan
60479;BME280;46321;48.398;11.754;2023-09-30T10:52:21;97484.69;;;42.89;nan
60479;BME280;46321;48.398;11.754;2023-09-30T10:54:48;97486.13;;;40.27;nan
60479;BME280;46321;48.398;11.754;2023-09-30T10:57:26;97486.09;;;38.11;nan
60479;BME280;46321;48.398;11.754;2023-09-30T11:00:10;97477.53;;;38.34;nan
60479;BME280;46321;48.398;11.754;2023-09-30T11:02:48;97476.34;;;34.83;nan
60479;BME280;46321;48.398;11.754;2023-09-30T11:05:13;97483.53;;;33.09;nan
60479;BME280;46321;48.398;11.754;2023-09-30T11:07:39;97470.97;;;39.62;nan
60479;BME280;46321;48.398;11.754;2023-09-30T11:10:07;97476.16;;;41.25;nan
60479;BME280;46321;48.398;11.754;2023-09-30T11:12:32;97478.88;;;41.38;nan
60479;BME280;46321;48.398;11.754;2023-09-30T11:14:59;97507.91;;;34.34;nan
60479;BME280;46321;48.398;11.754;2023-09-30T11:17:26;97503.56;;;31.83;nan
60479;BME280;46321;48.398;11.754;2023-09-30T11:19:51;97505.78;;;30.20;nan
60479;BME280;46321;48.398;11.754;2023-09-30T11:22:17;97506.81;;;29.26;nan
60479;BME280;46321;48.398;11.754;2023-09-30T11:24:43;97505.91;;;28.53;nan
60479;BME280;46321;48.398;11.754;2023-09-30T11:27:10;97506.34;;;27.75;nan
60479;BME280;46321;48.398;11.754;2023-09-30T11:29:36;97504.31;;;27.16;nan
60479;BME280;46321;48.398;11.754;2023-09-30T11:32:02;97494.72;;;27.47;nan
60479;BME280;46321;48.398;11.754;2023-09-30T11:34:33;97488.88;;;27.65;nan
60479;BME280;46321;48.398;11.754;2023-09-30T11:37:00;97486.72;;;27.67;nan
60479;BME280;46321;48.398;11.754;2023-09-30T11:39:30;97488.06;;;27.21;nan
60479;BME280;46321;48.398;11.754;2023-09-30T11:41:56;97486.31;;;26.82;nan
60479;BME280;46321;48.398;11.754;2023-09-30T11:44:23;97493.41;;;26.56;nan
60479;BME280;46321;48.398;11.754;2023-09-30T11:46:53;97496.41;;;26.37;nan
60479;BME280;46321;48.398;11.754;2023-09-30T11:49:39;97485.00;;;26.57;nan
60479;BME280;46321;48.398;11.754;2023-09-30T11:52:06;97484.25;;;25.72;nan
60479;BME280;46321;48.398;11.754;2023-09-30T11:57:08;97475.06;;;25.38;nan
60479;BME280;46321;48.398;11.754;2023-09-30T11:59:35;97472.81;;;25.13;nan
60479;BME280;46321;48.398;11.754;2023-09-30T12:02:01;97463.03;;;25.29;nan
60479;BME280;46321;48.398;11.754;2023-09-30T12:04:27;97453.66;;;25.02;nan
60479;BME280;46321;48.398;11.754;2023-09-30T12:06:52;97450.28;;;24.95;nan
60479;BME280;46321;48.398;11.754;2023-09-30T12:09:18;97460.22;;;25.24;nan
60479;BME280;46321;48.398;11.754;2023-09-30T12:11:51;97465.75;;;25.29;nan
60479;BME280;46321;48.398;11.754;2023-09-30T12:14:16;97459.09;;;25.20;nan
60479;BME280;46321;48.398;11.754;2023-09-30T12:16:42;97458.19;;;25.31;nan
60479;BME280;46321;48.398;11.754;2023-09-30T12:19:10;97465.47;;;25.31;nan
60479;BME280;46321;48.398;11.754;2023-09-30T12:21:35;97460.28;;;25.46;nan
60479;BME280;46321;48.398;11.754;2023-09-30T12:24:01;97462.91;;;25.41;nan
60479;BME280;46321;48.398;11.754;2023-09-30T12:26:29;97453.41;;;25.21;nan
60479;BME280;46321;48.398;11.754;2023-09-30T12:28:55;97448.75;;;25.16;nan
60479;BME280;46321;48.398;11.754;2023-09-30T12:31:20;97444.03;;;25.46;nan
60479;BME280;46321;48.398;11.754;2023-09-30T12:33:46;97440.75;;;25.44;nan
60479;BME280;46321;48.398;11.754;2023-09-30T12:36:16;97439.56;;;25.57;nan
60479;BME280;46321;48.398;11.754;2023-09-30T12:38:41;97445.44;;;25.32;nan
60479;BME280;46321;48.398;11.754;2023-09-30T12:41:07;97444.69;;;25.36;nan
60479;BME280;46321;48.398;11.754;2023-09-30T12:43:32;97440.44;;;25.23;nan
60479;BME280;46321;48.398;11.754;2023-09-30T12:45:57;97448.06;;;25.09;nan
60479;BME280;46321;48.398;11.754;2023-09-30T12:48:22;97450.16;;;25.02;nan
60479;BME280;46321;48.398;11.754;2023-09-30T12:50:48;97450.84;;;24.97;nan
60479;BME280;46321;48.398;11.754;2023-09-30T12:53:13;97453.06;;;24.83;nan
60479;BME280;46321;48.398;11.754;2023-09-30T12:55:39;97467.69;;;24.53;nan
60479;BME280;46321;48.398;11.754;2023-09-30T12:58:04;97468.56;;;24.41;nan
60479;BME280;46321;48.398;11.754;2023-09-30T13:00:31;97464.63;;;24.49;nan
60479;BME280;46321;48.398;11.754;2023-09-30T13:02:58;97466.44;;;24.43;nan
60479;BME280;46321;48.398;11.754;2023-09-30T13:05:23;97456.38;;;24.56;nan
60479;BME280;46321;48.398;11.754;2023-09-30T13:07:49;97446.19;;;24.75;nan
60479;BME280;46321;48.398;11.754;2023-09-30T13:10:14;97454.56;;;24.91;nan
60479;BME280;46321;48.398;11.754;2023-09-30T13:12:39;97454.56;;;24.91;nan
60479;BME280;46321;48.398;11.754;2023-09-30T13:15:05;97440.00;;;24.80;nan
60479;BME280;46321;48.398;11.754;2023-09-30T13:17:30;97428.22;;;24.86;nan
60479;BME280;46321;48.398;11.754;2023-09-30T13:19:56;97422.22;;;24.84;nan
60479;BME280;46321;48.398;11.754;2023-09-30T13:22:21;97417.44;;;24.74;nan
60479;BME280;46321;48.398;11.754;2023-09-30T13:24:47;97429.09;;;24.57;nan
60479;BME280;46321;48.398;11.754;2023-09-30T13:27:12;97427.16;;;24.41;nan
60479;BME280;46321;48.398;11.754;2023-09-30T13:29:41;97427.31;;;24.22;nan